createdAt,value
2019-05-22T00:03:30.212Z,2.4
2019-05-22T00:08:37.413Z,2.7
2019-05-22T00:13:42.639Z,2.4
2019-05-22T00:18:47.666Z,3
2019-05-22T00:23:52.543Z,2.5
2019-05-22T00:28:57.358Z,2
2019-05-22T00:34:02.119Z,2.8
2019-05-22T00:39:06.944Z,3.1
2019-05-22T00:44:10.390Z,2.6
2019-05-22T00:49:15.135Z,2.8
2019-05-22T00:54:19.942Z,2.7
2019-05-22T00:59:25.448Z,2.5
2019-05-22T01:04:28.910Z,1.7
2019-05-22T01:09:33.910Z,3.3
2019-05-22T01:14:42.737Z,1.7
2019-05-22T01:19:48.253Z,2.4
2019-05-22T01:24:53.026Z,2
2019-05-22T01:29:58.158Z,2.5
2019-05-22T01:35:03.115Z,3.3
2019-05-22T01:40:08.280Z,2.5
2019-05-22T01:45:11.676Z,3.2
2019-05-22T01:50:16.924Z,2.2
2019-05-22T01:55:20.520Z,2.3
2019-05-22T02:00:25.642Z,3.1
2019-05-22T02:05:30.719Z,2.2
2019-05-22T02:10:36.064Z,2.9
2019-05-22T02:15:40.791Z,2.4
2019-05-22T02:20:45.993Z,2.2
2019-05-22T02:25:51.057Z,4.7
2019-05-22T02:30:56.284Z,3.3
2019-05-22T02:36:01.108Z,3.7
2019-05-22T02:41:06.037Z,3
2019-05-22T02:46:10.819Z,4
2019-05-22T02:51:18.368Z,4.7
2019-05-22T02:56:23.141Z,3.9
2019-05-22T03:01:28.398Z,3
2019-05-22T03:06:33.517Z,3
2019-05-22T03:11:38.429Z,3.1
2019-05-22T03:16:43.216Z,3
2019-05-22T03:21:48.303Z,2.5
2019-05-22T03:26:53.247Z,2.9
2019-05-22T03:31:58.209Z,4.1
2019-05-22T03:37:03.224Z,3.3
2019-05-22T03:42:08.089Z,3.5
2019-05-22T03:47:13.337Z,3.6
2019-05-22T03:52:20.898Z,3
2019-05-22T03:57:25.913Z,4.9
2019-05-22T04:02:31.003Z,3.4
2019-05-22T04:07:35.773Z,3
2019-05-22T04:12:40.804Z,3.3
2019-05-22T04:17:45.567Z,4.9
2019-05-22T04:22:50.757Z,4.5
2019-05-22T04:27:55.765Z,4.1
2019-05-22T04:33:00.942Z,3.2
2019-05-22T04:38:05.767Z,3.6
2019-05-22T04:43:10.788Z,3.2
2019-05-22T04:48:15.708Z,3.1
2019-05-22T04:53:20.635Z,3.5
2019-05-22T04:58:25.959Z,3
2019-05-22T05:03:31.867Z,3.4
2019-05-22T05:08:37.346Z,3.3
2019-05-22T05:13:42.729Z,6.1
2019-05-22T05:18:48.090Z,2.6
2019-05-22T05:23:52.941Z,3.5
2019-05-22T05:28:57.972Z,3.5
2019-05-22T05:34:02.838Z,3.7
2019-05-22T05:39:07.788Z,4.1
2019-05-22T05:44:13.831Z,2
2019-05-22T05:49:18.656Z,3.7
2019-05-22T05:54:24.018Z,3.2
2019-05-22T05:59:29.442Z,4.8
2019-05-22T06:04:35.399Z,2.2
2019-05-22T06:09:39.819Z,3.8
2019-05-22T06:14:45.672Z,3
2019-05-22T06:19:51.233Z,2.9
2019-05-22T06:24:54.904Z,3.2
2019-05-22T06:29:58.759Z,7.4
2019-05-22T06:35:03.613Z,2.9
2019-05-22T06:40:07.297Z,2.6
2019-05-22T06:45:12.184Z,3.9
2019-05-22T06:50:17.082Z,2.6
2019-05-22T06:55:22.244Z,2.9
2019-05-22T07:00:27.194Z,2.4
2019-05-22T07:05:32.421Z,2
2019-05-22T07:10:38.039Z,2.1
2019-05-22T07:15:43.526Z,4.7
2019-05-22T07:20:48.749Z,2.7
2019-05-22T07:25:54.267Z,3
2019-05-22T07:30:59.672Z,3
2019-05-22T07:36:09.759Z,2.5
2019-05-22T07:41:11.028Z,2.8
2019-05-22T07:46:14.853Z,2.2
2019-05-22T07:51:19.680Z,3.6
2019-05-22T07:56:23.056Z,3.5
2019-05-22T08:01:26.857Z,4.9
2019-05-22T08:06:32.231Z,5.1
2019-05-22T08:11:36.122Z,3.4
2019-05-22T08:16:40.895Z,4.2
2019-05-22T08:21:44.315Z,3.5
2019-05-22T08:26:54.085Z,4.2
2019-05-22T08:31:50.005Z,7.2
2019-05-22T08:36:55.020Z,7.7
2019-05-22T08:41:58.457Z,7.7
2019-05-22T08:47:03.554Z,7.6
2019-05-22T08:52:22.386Z,7.9
2019-05-22T08:57:08.952Z,4.7
2019-05-22T09:02:13.943Z,3.8
2019-05-22T09:07:19.568Z,6.4
2019-05-22T09:12:24.327Z,3.9
2019-05-22T09:17:29.468Z,2.2
2019-05-22T09:22:40.436Z,3.6
2019-05-22T09:27:36.333Z,4.9
2019-05-22T09:32:41.297Z,1.9
2019-05-22T09:37:46.199Z,2.1
2019-05-22T09:42:50.221Z,1.5
2019-05-22T09:47:55.206Z,1.9
2019-05-22T09:52:58.536Z,1.7
2019-05-22T09:58:03.570Z,1.8
2019-05-22T10:03:08.593Z,2.1
2019-05-22T10:08:13.836Z,2.3
2019-05-22T10:13:19.097Z,3.4
2019-05-22T10:18:24.208Z,3.5
2019-05-22T10:23:29.160Z,5.2
2019-05-22T10:28:33.945Z,3.8
2019-05-22T10:33:38.787Z,3.8
2019-05-22T10:38:43.675Z,4.9
2019-05-22T10:43:48.703Z,5.1
2019-05-22T10:48:53.539Z,4.2
2019-05-22T10:53:58.436Z,4.4
2019-05-22T10:59:03.327Z,5.7
2019-05-22T11:04:08.367Z,3.8
2019-05-22T11:09:13.340Z,2.8
2019-05-22T11:14:18.148Z,2.5
2019-05-22T11:19:23.478Z,2.1
2019-05-22T11:24:28.463Z,3.1
2019-05-22T11:29:33.666Z,3.6
2019-05-22T11:34:38.730Z,3.4
2019-05-22T11:39:44.964Z,4.6
2019-05-22T11:44:51.993Z,3.1
2019-05-22T11:49:57.021Z,2.6
2019-05-22T11:55:01.800Z,2.8
2019-05-22T12:00:09.147Z,4.7
2019-05-22T12:05:14.529Z,2.9
2019-05-22T12:10:19.576Z,4.7
2019-05-22T12:15:24.656Z,3.8
2019-05-22T12:20:29.615Z,1.7
2019-05-22T12:25:34.380Z,2
2019-05-22T12:30:39.541Z,1.9
2019-05-22T12:35:44.563Z,2
2019-05-22T12:40:50.520Z,1.8
2019-05-22T12:45:55.416Z,2.3
2019-05-22T12:51:01.053Z,1.8
2019-05-22T12:56:06.088Z,2.9
2019-05-22T13:01:11.282Z,2.1
2019-05-22T13:06:15.129Z,2
2019-05-22T13:11:20.381Z,2.2
2019-05-22T13:16:26.837Z,1.7
2019-05-22T13:21:30.599Z,2.1
2019-05-22T13:26:36.427Z,2.8
2019-05-22T13:31:41.476Z,3.1
2019-05-22T13:36:46.409Z,2.9
2019-05-22T13:41:51.240Z,5.1
2019-05-22T13:46:56.174Z,6
2019-05-22T13:52:01.034Z,5.9
2019-05-22T13:57:06.023Z,3.5
2019-05-22T14:02:11.040Z,12.8
2019-05-22T14:07:14.616Z,3.4
2019-05-22T14:12:19.956Z,3.5
2019-05-22T14:17:25.045Z,6.9
2019-05-22T14:22:30.263Z,2.7
2019-05-22T14:27:41.417Z,2.7
2019-05-22T14:32:47.687Z,3.2
2019-05-22T14:37:52.867Z,3.1
2019-05-22T14:42:57.924Z,2.9
2019-05-22T14:48:05.933Z,2.9
2019-05-22T14:53:10.858Z,3.4
2019-05-22T14:58:15.752Z,2.1
2019-05-22T15:03:22.752Z,3.9
2019-05-22T15:08:27.946Z,2.9
2019-05-22T15:13:33.284Z,2.3
2019-05-22T15:18:38.245Z,4.3
2019-05-22T15:23:43.944Z,1.5
2019-05-22T15:28:48.703Z,2.2
2019-05-22T15:33:53.644Z,2.9
2019-05-22T15:38:58.482Z,2.6
2019-05-22T15:44:03.366Z,2.6
2019-05-22T15:49:08.154Z,1.5
2019-05-22T15:54:13.232Z,3
2019-05-22T15:59:18.049Z,2.9
2019-05-22T16:04:23.000Z,2.2
2019-05-22T16:09:27.913Z,3.1
2019-05-22T16:14:33.627Z,3.1
2019-05-22T16:19:38.824Z,3.1
2019-05-22T16:24:43.889Z,3.4
2019-05-22T16:29:49.215Z,2.4
2019-05-22T16:34:54.551Z,2.4
2019-05-22T16:39:59.374Z,1.8
2019-05-22T16:45:05.768Z,4.2
2019-05-22T16:50:10.577Z,2.8
2019-05-22T16:55:15.957Z,3.1
2019-05-22T17:00:20.975Z,3.2
2019-05-22T17:05:25.979Z,2.4
2019-05-22T17:10:31.216Z,3.4
2019-05-22T17:15:37.881Z,1.8
2019-05-22T17:20:43.064Z,2.9
2019-05-22T17:25:51.106Z,2.5
2019-05-22T17:30:56.208Z,1.9
2019-05-22T17:36:04.771Z,2.9
2019-05-22T17:41:10.367Z,3.8
2019-05-22T17:46:15.506Z,2.3
2019-05-22T17:51:20.280Z,1.9
2019-05-22T17:56:25.183Z,3.3
2019-05-22T18:01:30.128Z,3.2
2019-05-22T18:06:39.280Z,3.7
2019-05-22T18:11:44.082Z,3
2019-05-22T18:16:49.222Z,2.9
2019-05-22T18:21:54.561Z,2.7
2019-05-22T18:27:00.081Z,4.2
2019-05-22T18:32:05.246Z,2.6
2019-05-22T18:37:10.407Z,3.1
2019-05-22T18:42:15.196Z,2.6
2019-05-22T18:47:20.055Z,3.4
2019-05-22T18:52:39.784Z,3.4
2019-05-22T18:57:27.791Z,2.9
2019-05-22T19:02:32.835Z,2.5
2019-05-22T19:07:40.427Z,3.3
2019-05-22T19:12:45.248Z,2.9
2019-05-22T19:17:50.461Z,3.5
2019-05-22T19:23:01.153Z,2.6
2019-05-22T19:27:56.683Z,3.5
2019-05-22T19:33:04.788Z,3.4
2019-05-22T19:38:09.879Z,3
2019-05-22T19:43:16.449Z,2.7
2019-05-22T19:48:21.328Z,3.6
2019-05-22T19:53:26.288Z,3.7
2019-05-22T19:58:31.378Z,3.4
2019-05-22T20:03:36.297Z,3.9
2019-05-22T20:08:41.510Z,4
2019-05-22T20:13:46.656Z,3.8
2019-05-22T20:18:51.754Z,3.9
2019-05-22T20:23:56.588Z,5
2019-05-22T20:29:02.022Z,5.8
2019-05-22T20:34:05.783Z,5.3
2019-05-22T20:39:10.624Z,6.4
2019-05-22T20:44:15.461Z,5.4
2019-05-22T20:49:20.374Z,5.7
2019-05-22T20:54:27.820Z,5.4
2019-05-22T20:59:33.248Z,6.4
2019-05-22T21:04:38.047Z,5.9
2019-05-22T21:09:43.004Z,7.6
2019-05-22T21:14:48.231Z,6.3
2019-05-22T21:19:53.467Z,7.3
2019-05-22T21:24:58.224Z,6
2019-05-22T21:30:09.182Z,6.3
2019-05-22T21:35:12.884Z,7.3
2019-05-22T21:40:17.802Z,6.8
2019-05-22T21:45:22.830Z,6.4
2019-05-22T21:50:27.850Z,7.9
2019-05-22T21:55:32.956Z,6.8
2019-05-22T22:00:38.428Z,7.6
2019-05-22T22:05:43.429Z,6.3
2019-05-22T22:10:48.335Z,6.5
2019-05-22T22:15:53.342Z,6.4
2019-05-22T22:20:57.473Z,6.1
2019-05-22T22:26:02.812Z,5.9
2019-05-22T22:31:09.469Z,6.5
2019-05-22T22:36:14.584Z,6.1
2019-05-22T22:41:19.516Z,7.2
2019-05-22T22:46:24.493Z,6.5
2019-05-22T22:51:29.659Z,6.5
2019-05-22T22:56:34.898Z,5.6
2019-05-22T23:01:40.017Z,5.7
2019-05-22T23:06:44.880Z,4.8
2019-05-22T23:11:49.843Z,4.7
2019-05-22T23:16:54.776Z,5.1
2019-05-22T23:21:58.722Z,4.7
2019-05-22T23:27:03.704Z,5.2
2019-05-22T23:32:08.715Z,5
2019-05-22T23:37:13.574Z,5.3
2019-05-22T23:42:18.698Z,5.7
2019-05-22T23:47:23.708Z,4.4
2019-05-22T23:52:28.908Z,5.1
2019-05-22T23:57:34.162Z,4.4
